Terminal Aerodrome Forecast
Issued by NWS Twin Cities, MN

Home | Current Version | Previous Version | Graphics & Text | Print | Product List | Glossary On
Versions: 1 2 3 4 5 6 7 8 9 10 11 12 13 14 15 16 17 18 19 20 21 22 23 24 25 26 27
366
FTUS43 KMPX 240520
TAFMSP
TAF
KMSP 240520Z 2406/2512 01010KT P6SM SCT040 BKN080
     FM241100 02010KT P6SM BKN015 OVC050
     FM241700 03009KT P6SM SCT020 BKN050
     FM250100 06005KT P6SM SCT250=

USA.gov is the U.S. government's official web portal to all federal, state and local government web resources and services.